sensor_id;sensor_type;location;lat;lon;timestamp;P1;durP1;ratioP1;P2;durP2;ratioP2
29984;SDS011;17387;42.690;23.328;2022-08-21T00:01:16;33.17;;;20.25;;
29984;SDS011;17387;42.690;23.328;2022-08-21T00:03:45;35.10;;;19.83;;
29984;SDS011;17387;42.690;23.328;2022-08-21T00:06:10;39.15;;;21.83;;
29984;SDS011;17387;42.690;23.328;2022-08-21T00:08:36;40.58;;;23.05;;
29984;SDS011;17387;42.690;23.328;2022-08-21T00:11:02;44.70;;;22.77;;
29984;SDS011;17387;42.690;23.328;2022-08-21T00:13:28;39.80;;;20.77;;
29984;SDS011;17387;42.690;23.328;2022-08-21T00:15:54;29.15;;;18.10;;
29984;SDS011;17387;42.690;23.328;2022-08-21T00:18:19;25.52;;;14.93;;
29984;SDS011;17387;42.690;23.328;2022-08-21T00:20:45;24.00;;;13.60;;
29984;SDS011;17387;42.690;23.328;2022-08-21T00:23:11;31.77;;;17.27;;
29984;SDS011;17387;42.690;23.328;2022-08-21T00:25:39;20.92;;;12.82;;
29984;SDS011;17387;42.690;23.328;2022-08-21T00:28:06;25.02;;;13.93;;
29984;SDS011;17387;42.690;23.328;2022-08-21T00:30:31;41.28;;;23.35;;
29984;SDS011;17387;42.690;23.328;2022-08-21T00:32:58;37.08;;;22.63;;
29984;SDS011;17387;42.690;23.328;2022-08-21T00:35:25;55.38;;;29.58;;
29984;SDS011;17387;42.690;23.328;2022-08-21T00:37:55;51.88;;;28.60;;
29984;SDS011;17387;42.690;23.328;2022-08-21T00:40:23;53.92;;;30.73;;
29984;SDS011;17387;42.690;23.328;2022-08-21T00:42:58;61.72;;;31.52;;
29984;SDS011;17387;42.690;23.328;2022-08-21T00:45:24;57.28;;;31.67;;
29984;SDS011;17387;42.690;23.328;2022-08-21T00:47:50;55.22;;;29.88;;
29984;SDS011;17387;42.690;23.328;2022-08-21T00:50:17;58.58;;;30.98;;
29984;SDS011;17387;42.690;23.328;2022-08-21T00:52:42;63.85;;;30.92;;
29984;SDS011;17387;42.690;23.328;2022-08-21T00:55:10;60.70;;;30.27;;
29984;SDS011;17387;42.690;23.328;2022-08-21T00:57:44;64.45;;;31.30;;
29984;SDS011;17387;42.690;23.328;2022-08-21T01:00:14;60.15;;;31.10;;
29984;SDS011;17387;42.690;23.328;2022-08-21T01:02:42;50.17;;;27.88;;
29984;SDS011;17387;42.690;23.328;2022-08-21T01:05:08;47.85;;;26.88;;
29984;SDS011;17387;42.690;23.328;2022-08-21T01:07:34;47.90;;;27.13;;
29984;SDS011;17387;42.690;23.328;2022-08-21T01:10:00;49.58;;;28.02;;
29984;SDS011;17387;42.690;23.328;2022-08-21T01:12:26;46.97;;;25.85;;
29984;SDS011;17387;42.690;23.328;2022-08-21T01:14:51;39.85;;;23.13;;
29984;SDS011;17387;42.690;23.328;2022-08-21T01:17:17;38.92;;;21.88;;
29984;SDS011;17387;42.690;23.328;2022-08-21T01:19:45;35.83;;;21.10;;
29984;SDS011;17387;42.690;23.328;2022-08-21T01:22:12;36.10;;;20.83;;
29984;SDS011;17387;42.690;23.328;2022-08-21T01:24:37;30.80;;;18.63;;
29984;SDS011;17387;42.690;23.328;2022-08-21T01:27:03;31.27;;;19.13;;
29984;SDS011;17387;42.690;23.328;2022-08-21T01:29:45;29.35;;;17.75;;
29984;SDS011;17387;42.690;23.328;2022-08-21T01:32:44;31.20;;;18.08;;
29984;SDS011;17387;42.690;23.328;2022-08-21T01:35:11;33.08;;;18.42;;
29984;SDS011;17387;42.690;23.328;2022-08-21T01:37:38;35.15;;;18.02;;
29984;SDS011;17387;42.690;23.328;2022-08-21T01:40:04;29.90;;;17.08;;
29984;SDS011;17387;42.690;23.328;2022-08-21T01:42:31;26.30;;;17.25;;
29984;SDS011;17387;42.690;23.328;2022-08-21T01:44:57;33.83;;;19.25;;
29984;SDS011;17387;42.690;23.328;2022-08-21T01:47:22;29.70;;;17.77;;
29984;SDS011;17387;42.690;23.328;2022-08-21T01:49:48;33.05;;;17.80;;
29984;SDS011;17387;42.690;23.328;2022-08-21T01:52:14;30.60;;;17.80;;
29984;SDS011;17387;42.690;23.328;2022-08-21T01:54:40;29.00;;;16.98;;
29984;SDS011;17387;42.690;23.328;2022-08-21T01:57:06;31.25;;;17.52;;
29984;SDS011;17387;42.690;23.328;2022-08-21T01:59:31;26.98;;;17.10;;
29984;SDS011;17387;42.690;23.328;2022-08-21T02:01:58;25.58;;;16.75;;
29984;SDS011;17387;42.690;23.328;2022-08-21T02:04:23;44.85;;;25.35;;
29984;SDS011;17387;42.690;23.328;2022-08-21T02:06:49;44.70;;;24.77;;
29984;SDS011;17387;42.690;23.328;2022-08-21T02:09:15;46.83;;;25.00;;
29984;SDS011;17387;42.690;23.328;2022-08-21T02:11:41;45.85;;;25.98;;
29984;SDS011;17387;42.690;23.328;2022-08-21T02:14:08;49.92;;;29.83;;
29984;SDS011;17387;42.690;23.328;2022-08-21T02:16:34;53.47;;;29.73;;
29984;SDS011;17387;42.690;23.328;2022-08-21T02:19:00;47.75;;;28.05;;
29984;SDS011;17387;42.690;23.328;2022-08-21T02:21:26;48.63;;;28.98;;
29984;SDS011;17387;42.690;23.328;2022-08-21T02:23:51;50.88;;;28.02;;
29984;SDS011;17387;42.690;23.328;2022-08-21T02:26:17;51.10;;;29.08;;
29984;SDS011;17387;42.690;23.328;2022-08-21T02:28:42;47.40;;;27.98;;
29984;SDS011;17387;42.690;23.328;2022-08-21T02:31:08;50.42;;;28.80;;
29984;SDS011;17387;42.690;23.328;2022-08-21T02:33:34;51.78;;;30.20;;
29984;SDS011;17387;42.690;23.328;2022-08-21T02:36:00;49.33;;;28.70;;
29984;SDS011;17387;42.690;23.328;2022-08-21T02:38:27;56.80;;;31.33;;
29984;SDS011;17387;42.690;23.328;2022-08-21T02:40:55;56.88;;;31.38;;
29984;SDS011;17387;42.690;23.328;2022-08-21T02:43:22;57.55;;;32.50;;
29984;SDS011;17387;42.690;23.328;2022-08-21T02:45:49;68.20;;;35.00;;
29984;SDS011;17387;42.690;23.328;2022-08-21T02:48:17;62.17;;;33.67;;
29984;SDS011;17387;42.690;23.328;2022-08-21T02:50:51;67.83;;;34.27;;
29984;SDS011;17387;42.690;23.328;2022-08-21T02:53:18;78.68;;;36.17;;
29984;SDS011;17387;42.690;23.328;2022-08-21T02:55:45;74.90;;;36.10;;
29984;SDS011;17387;42.690;23.328;2022-08-21T02:58:13;78.70;;;36.97;;
29984;SDS011;17387;42.690;23.328;2022-08-21T03:00:41;73.60;;;35.83;;
29984;SDS011;17387;42.690;23.328;2022-08-21T03:03:08;71.53;;;34.33;;
29984;SDS011;17387;42.690;23.328;2022-08-21T03:05:35;74.35;;;34.22;;
29984;SDS011;17387;42.690;23.328;2022-08-21T03:08:04;65.95;;;32.42;;
29984;SDS011;17387;42.690;23.328;2022-08-21T03:10:34;71.43;;;33.30;;
29984;SDS011;17387;42.690;23.328;2022-08-21T03:13:00;70.80;;;33.35;;
29984;SDS011;17387;42.690;23.328;2022-08-21T03:15:27;73.85;;;32.67;;
29984;SDS011;17387;42.690;23.328;2022-08-21T03:17:53;70.13;;;30.65;;
29984;SDS011;17387;42.690;23.328;2022-08-21T03:20:20;69.47;;;32.80;;
29984;SDS011;17387;42.690;23.328;2022-08-21T03:22:47;65.85;;;32.70;;
29984;SDS011;17387;42.690;23.328;2022-08-21T03:25:13;71.68;;;33.20;;
29984;SDS011;17387;42.690;23.328;2022-08-21T03:27:38;71.72;;;33.25;;
29984;SDS011;17387;42.690;23.328;2022-08-21T03:30:05;64.68;;;31.70;;
29984;SDS011;17387;42.690;23.328;2022-08-21T03:32:32;60.58;;;30.65;;
29984;SDS011;17387;42.690;23.328;2022-08-21T03:34:57;65.60;;;32.25;;
29984;SDS011;17387;42.690;23.328;2022-08-21T03:37:23;66.72;;;31.92;;
29984;SDS011;17387;42.690;23.328;2022-08-21T03:39:49;65.65;;;32.38;;
29984;SDS011;17387;42.690;23.328;2022-08-21T03:42:15;67.60;;;33.80;;
29984;SDS011;17387;42.690;23.328;2022-08-21T03:44:41;67.03;;;34.42;;
29984;SDS011;17387;42.690;23.328;2022-08-21T03:47:07;61.97;;;32.55;;
29984;SDS011;17387;42.690;23.328;2022-08-21T03:49:33;57.45;;;30.02;;
29984;SDS011;17387;42.690;23.328;2022-08-21T03:51:59;54.85;;;28.55;;
29984;SDS011;17387;42.690;23.328;2022-08-21T03:54:24;47.28;;;28.15;;
29984;SDS011;17387;42.690;23.328;2022-08-21T03:56:50;48.63;;;28.30;;
29984;SDS011;17387;42.690;23.328;2022-08-21T03:59:16;48.00;;;27.60;;
29984;SDS011;17387;42.690;23.328;2022-08-21T04:01:55;44.80;;;27.20;;
29984;SDS011;17387;42.690;23.328;2022-08-21T04:04:23;42.75;;;25.05;;
29984;SDS011;17387;42.690;23.328;2022-08-21T04:06:49;39.80;;;25.35;;
29984;SDS011;17387;42.690;23.328;2022-08-21T04:09:15;38.58;;;25.20;;
29984;SDS011;17387;42.690;23.328;2022-08-21T04:11:42;33.33;;;22.90;;
29984;SDS011;17387;42.690;23.328;2022-08-21T04:14:07;38.33;;;23.02;;
29984;SDS011;17387;42.690;23.328;2022-08-21T04:16:33;37.33;;;22.63;;
29984;SDS011;17387;42.690;23.328;2022-08-21T04:18:58;38.05;;;25.15;;
29984;SDS011;17387;42.690;23.328;2022-08-21T04:21:24;35.60;;;20.80;;
29984;SDS011;17387;42.690;23.328;2022-08-21T04:23:49;29.50;;;18.85;;
29984;SDS011;17387;42.690;23.328;2022-08-21T04:26:15;26.20;;;17.52;;
29984;SDS011;17387;42.690;23.328;2022-08-21T04:28:40;28.52;;;16.20;;
29984;SDS011;17387;42.690;23.328;2022-08-21T04:31:06;28.83;;;16.85;;
29984;SDS011;17387;42.690;23.328;2022-08-21T04:33:33;22.48;;;14.77;;
29984;SDS011;17387;42.690;23.328;2022-08-21T04:35:59;21.80;;;14.50;;
29984;SDS011;17387;42.690;23.328;2022-08-21T04:38:24;22.73;;;15.35;;
29984;SDS011;17387;42.690;23.328;2022-08-21T04:40:51;22.10;;;14.10;;
29984;SDS011;17387;42.690;23.328;2022-08-21T04:43:17;23.20;;;14.48;;
29984;SDS011;17387;42.690;23.328;2022-08-21T04:45:45;26.15;;;15.00;;
29984;SDS011;17387;42.690;23.328;2022-08-21T04:48:13;23.48;;;14.60;;
29984;SDS011;17387;42.690;23.328;2022-08-21T04:50:41;22.00;;;14.40;;
29984;SDS011;17387;42.690;23.328;2022-08-21T04:53:12;18.48;;;13.70;;
29984;SDS011;17387;42.690;23.328;2022-08-21T04:55:42;18.80;;;13.52;;
29984;SDS011;17387;42.690;23.328;2022-08-21T04:58:08;21.67;;;14.40;;
29984;SDS011;17387;42.690;23.328;2022-08-21T05:00:36;20.33;;;14.15;;
29984;SDS011;17387;42.690;23.328;2022-08-21T05:03:02;23.10;;;14.75;;
29984;SDS011;17387;42.690;23.328;2022-08-21T05:05:31;21.25;;;14.27;;
29984;SDS011;17387;42.690;23.328;2022-08-21T05:07:57;25.70;;;14.57;;
29984;SDS011;17387;42.690;23.328;2022-08-21T05:10:26;19.08;;;14.75;;
29984;SDS011;17387;42.690;23.328;2022-08-21T05:12:52;24.10;;;15.38;;
29984;SDS011;17387;42.690;23.328;2022-08-21T05:15:18;20.30;;;14.50;;
29984;SDS011;17387;42.690;23.328;2022-08-21T05:17:44;24.00;;;14.38;;
29984;SDS011;17387;42.690;23.328;2022-08-21T05:20:10;21.50;;;13.82;;
29984;SDS011;17387;42.690;23.328;2022-08-21T05:22:37;23.52;;;13.80;;
29984;SDS011;17387;42.690;23.328;2022-08-21T05:25:02;18.10;;;13.80;;
29984;SDS011;17387;42.690;23.328;2022-08-21T05:27:29;20.88;;;13.82;;
29984;SDS011;17387;42.690;23.328;2022-08-21T05:29:55;20.50;;;12.60;;
29984;SDS011;17387;42.690;23.328;2022-08-21T05:32:21;18.00;;;13.00;;
29984;SDS011;17387;42.690;23.328;2022-08-21T05:34:46;17.25;;;11.32;;
29984;SDS011;17387;42.690;23.328;2022-08-21T05:37:12;17.15;;;11.32;;
29984;SDS011;17387;42.690;23.328;2022-08-21T05:39:37;16.77;;;12.48;;
29984;SDS011;17387;42.690;23.328;2022-08-21T05:42:03;18.35;;;11.15;;
29984;SDS011;17387;42.690;23.328;2022-08-21T05:44:28;20.10;;;12.75;;
29984;SDS011;17387;42.690;23.328;2022-08-21T05:46:54;17.58;;;11.00;;
29984;SDS011;17387;42.690;23.328;2022-08-21T05:49:19;14.13;;;9.45;;
29984;SDS011;17387;42.690;23.328;2022-08-21T05:51:45;13.98;;;9.07;;
29984;SDS011;17387;42.690;23.328;2022-08-21T05:54:10;18.00;;;10.15;;
29984;SDS011;17387;42.690;23.328;2022-08-21T05:56:36;15.98;;;9.70;;
29984;SDS011;17387;42.690;23.328;2022-08-21T05:59:02;17.90;;;10.23;;
29984;SDS011;17387;42.690;23.328;2022-08-21T06:01:27;15.10;;;11.30;;
29984;SDS011;17387;42.690;23.328;2022-08-21T06:03:53;15.02;;;11.60;;
29984;SDS011;17387;42.690;23.328;2022-08-21T06:06:19;16.30;;;11.13;;
29984;SDS011;17387;42.690;23.328;2022-08-21T06:08:44;18.17;;;11.77;;
29984;SDS011;17387;42.690;23.328;2022-08-21T06:11:10;42.72;;;27.42;;
29984;SDS011;17387;42.690;23.328;2022-08-21T06:13:36;20.27;;;14.85;;
29984;SDS011;17387;42.690;23.328;2022-08-21T06:16:03;19.80;;;14.23;;
29984;SDS011;17387;42.690;23.328;2022-08-21T06:18:29;16.02;;;11.90;;
29984;SDS011;17387;42.690;23.328;2022-08-21T06:20:55;18.85;;;12.52;;
29984;SDS011;17387;42.690;23.328;2022-08-21T06:23:21;15.30;;;12.00;;
29984;SDS011;17387;42.690;23.328;2022-08-21T06:25:46;18.58;;;12.63;;
29984;SDS011;17387;42.690;23.328;2022-08-21T06:28:11;17.65;;;12.65;;
29984;SDS011;17387;42.690;23.328;2022-08-21T06:30:38;15.68;;;12.38;;
29984;SDS011;17387;42.690;23.328;2022-08-21T06:33:04;19.23;;;13.02;;
29984;SDS011;17387;42.690;23.328;2022-08-21T06:35:31;23.77;;;13.50;;
29984;SDS011;17387;42.690;23.328;2022-08-21T06:37:56;18.17;;;12.85;;
29984;SDS011;17387;42.690;23.328;2022-08-21T06:40:22;20.20;;;13.15;;
29984;SDS011;17387;42.690;23.328;2022-08-21T06:42:48;18.88;;;12.75;;
29984;SDS011;17387;42.690;23.328;2022-08-21T06:45:14;20.38;;;13.50;;
29984;SDS011;17387;42.690;23.328;2022-08-21T06:47:40;18.60;;;13.52;;
29984;SDS011;17387;42.690;23.328;2022-08-21T06:50:05;22.98;;;14.05;;
29984;SDS011;17387;42.690;23.328;2022-08-21T06:52:35;20.45;;;12.23;;
29984;SDS011;17387;42.690;23.328;2022-08-21T06:55:02;15.93;;;11.50;;
29984;SDS011;17387;42.690;23.328;2022-08-21T06:57:30;16.38;;;10.82;;
29984;SDS011;17387;42.690;23.328;2022-08-21T06:59:55;22.27;;;11.77;;
29984;SDS011;17387;42.690;23.328;2022-08-21T07:02:21;15.52;;;10.10;;
29984;SDS011;17387;42.690;23.328;2022-08-21T07:04:46;15.85;;;10.60;;
29984;SDS011;17387;42.690;23.328;2022-08-21T07:07:11;13.85;;;10.43;;
29984;SDS011;17387;42.690;23.328;2022-08-21T07:09:37;17.52;;;10.95;;
29984;SDS011;17387;42.690;23.328;2022-08-21T07:12:02;20.58;;;10.75;;
29984;SDS011;17387;42.690;23.328;2022-08-21T07:14:28;14.48;;;9.40;;
29984;SDS011;17387;42.690;23.328;2022-08-21T07:16:53;19.60;;;9.35;;
29984;SDS011;17387;42.690;23.328;2022-08-21T07:19:19;14.93;;;9.57;;
29984;SDS011;17387;42.690;23.328;2022-08-21T07:21:45;16.80;;;10.57;;
29984;SDS011;17387;42.690;23.328;2022-08-21T07:24:11;20.02;;;13.90;;
29984;SDS011;17387;42.690;23.328;2022-08-21T07:26:37;26.25;;;16.05;;
29984;SDS011;17387;42.690;23.328;2022-08-21T07:29:02;20.83;;;14.35;;
29984;SDS011;17387;42.690;23.328;2022-08-21T07:31:29;21.65;;;14.38;;
29984;SDS011;17387;42.690;23.328;2022-08-21T07:33:54;22.20;;;15.32;;
29984;SDS011;17387;42.690;23.328;2022-08-21T07:36:20;24.83;;;15.07;;
29984;SDS011;17387;42.690;23.328;2022-08-21T07:38:46;22.92;;;13.50;;
29984;SDS011;17387;42.690;23.328;2022-08-21T07:41:16;24.27;;;15.73;;
29984;SDS011;17387;42.690;23.328;2022-08-21T07:43:45;21.20;;;14.98;;
29984;SDS011;17387;42.690;23.328;2022-08-21T07:46:11;20.05;;;13.68;;
29984;SDS011;17387;42.690;23.328;2022-08-21T07:48:38;20.88;;;13.82;;
29984;SDS011;17387;42.690;23.328;2022-08-21T07:51:08;20.63;;;15.13;;
29984;SDS011;17387;42.690;23.328;2022-08-21T07:53:35;21.55;;;14.85;;
29984;SDS011;17387;42.690;23.328;2022-08-21T07:56:02;23.92;;;14.43;;
29984;SDS011;17387;42.690;23.328;2022-08-21T07:58:29;25.13;;;15.80;;
29984;SDS011;17387;42.690;23.328;2022-08-21T08:00:55;20.45;;;13.95;;
29984;SDS011;17387;42.690;23.328;2022-08-21T08:03:20;21.02;;;13.77;;
29984;SDS011;17387;42.690;23.328;2022-08-21T08:05:46;26.65;;;15.13;;
29984;SDS011;17387;42.690;23.328;2022-08-21T08:08:11;18.08;;;14.10;;
29984;SDS011;17387;42.690;23.328;2022-08-21T08:10:37;23.17;;;13.32;;
29984;SDS011;17387;42.690;23.328;2022-08-21T08:13:03;18.02;;;14.70;;
29984;SDS011;17387;42.690;23.328;2022-08-21T08:15:29;26.67;;;14.90;;
29984;SDS011;17387;42.690;23.328;2022-08-21T08:17:55;23.08;;;15.00;;
29984;SDS011;17387;42.690;23.328;2022-08-21T08:20:22;24.70;;;14.77;;
29984;SDS011;17387;42.690;23.328;2022-08-21T08:22:51;26.90;;;14.23;;
29984;SDS011;17387;42.690;23.328;2022-08-21T08:25:18;22.38;;;13.82;;
29984;SDS011;17387;42.690;23.328;2022-08-21T08:27:44;18.92;;;13.63;;
29984;SDS011;17387;42.690;23.328;2022-08-21T08:30:10;20.95;;;13.50;;
29984;SDS011;17387;42.690;23.328;2022-08-21T08:32:37;20.27;;;13.40;;
29984;SDS011;17387;42.690;23.328;2022-08-21T08:35:04;21.63;;;14.85;;
29984;SDS011;17387;42.690;23.328;2022-08-21T08:37:30;24.85;;;15.20;;
29984;SDS011;17387;42.690;23.328;2022-08-21T08:39:55;25.83;;;14.48;;
29984;SDS011;17387;42.690;23.328;2022-08-21T08:42:28;32.05;;;22.10;;
29984;SDS011;17387;42.690;23.328;2022-08-21T08:45:15;17.95;;;13.27;;
29984;SDS011;17387;42.690;23.328;2022-08-21T08:47:46;19.98;;;12.88;;
29984;SDS011;17387;42.690;23.328;2022-08-21T08:50:25;17.77;;;11.68;;
29984;SDS011;17387;42.690;23.328;2022-08-21T08:53:00;18.25;;;11.88;;
29984;SDS011;17387;42.690;23.328;2022-08-21T08:55:35;16.52;;;11.60;;
29984;SDS011;17387;42.690;23.328;2022-08-21T08:58:02;15.63;;;10.63;;
29984;SDS011;17387;42.690;23.328;2022-08-21T09:00:29;16.40;;;10.60;;
29984;SDS011;17387;42.690;23.328;2022-08-21T09:02:57;16.58;;;10.45;;
29984;SDS011;17387;42.690;23.328;2022-08-21T09:10:20;15.50;;;9.85;;
29984;SDS011;17387;42.690;23.328;2022-08-21T09:15:29;17.92;;;9.05;;
29984;SDS011;17387;42.690;23.328;2022-08-21T09:26:14;20.83;;;9.15;;
29984;SDS011;17387;42.690;23.328;2022-08-21T09:28:52;15.05;;;8.57;;
29984;SDS011;17387;42.690;23.328;2022-08-21T09:31:22;15.80;;;9.98;;
29984;SDS011;17387;42.690;23.328;2022-08-21T09:36:29;12.48;;;7.60;;
29984;SDS011;17387;42.690;23.328;2022-08-21T09:39:00;14.52;;;8.50;;
29984;SDS011;17387;42.690;23.328;2022-08-21T09:41:27;12.13;;;7.78;;
29984;SDS011;17387;42.690;23.328;2022-08-21T09:43:55;15.63;;;8.60;;
29984;SDS011;17387;42.690;23.328;2022-08-21T09:46:22;17.23;;;10.02;;
29984;SDS011;17387;42.690;23.328;2022-08-21T09:48:51;14.13;;;9.10;;
29984;SDS011;17387;42.690;23.328;2022-08-21T09:51:22;14.18;;;7.85;;
29984;SDS011;17387;42.690;23.328;2022-08-21T09:53:55;18.45;;;10.38;;
29984;SDS011;17387;42.690;23.328;2022-08-21T09:56:27;16.52;;;8.60;;
29984;SDS011;17387;42.690;23.328;2022-08-21T09:59:35;15.40;;;9.77;;
29984;SDS011;17387;42.690;23.328;2022-08-21T10:02:07;18.30;;;9.07;;
29984;SDS011;17387;42.690;23.328;2022-08-21T10:04:49;16.48;;;9.75;;
29984;SDS011;17387;42.690;23.328;2022-08-21T10:07:21;20.60;;;12.43;;
29984;SDS011;17387;42.690;23.328;2022-08-21T10:09:57;13.48;;;8.38;;
29984;SDS011;17387;42.690;23.328;2022-08-21T10:12:42;23.55;;;15.00;;
29984;SDS011;17387;42.690;23.328;2022-08-21T10:15:38;19.75;;;10.20;;
29984;SDS011;17387;42.690;23.328;2022-08-21T10:18:30;49.60;;;24.80;;
29984;SDS011;17387;42.690;23.328;2022-08-21T10:23:38;16.33;;;8.90;;
29984;SDS011;17387;42.690;23.328;2022-08-21T10:26:26;18.83;;;11.10;;
29984;SDS011;17387;42.690;23.328;2022-08-21T10:47:57;16.23;;;9.02;;
29984;SDS011;17387;42.690;23.328;2022-08-21T10:50:35;15.30;;;8.68;;
29984;SDS011;17387;42.690;23.328;2022-08-21T10:56:00;11.07;;;6.97;;
29984;SDS011;17387;42.690;23.328;2022-08-21T11:03:54;16.13;;;9.63;;
29984;SDS011;17387;42.690;23.328;2022-08-21T11:06:34;14.85;;;9.55;;
29984;SDS011;17387;42.690;23.328;2022-08-21T11:09:07;17.05;;;7.95;;
29984;SDS011;17387;42.690;23.328;2022-08-21T11:11:47;13.50;;;7.95;;
29984;SDS011;17387;42.690;23.328;2022-08-21T11:17:15;20.05;;;8.60;;
29984;SDS011;17387;42.690;23.328;2022-08-21T11:19:52;15.82;;;8.85;;
29984;SDS011;17387;42.690;23.328;2022-08-21T11:25:20;14.05;;;7.63;;
29984;SDS011;17387;42.690;23.328;2022-08-21T11:30:27;19.17;;;11.30;;
29984;SDS011;17387;42.690;23.328;2022-08-21T11:35:59;11.70;;;6.32;;
29984;SDS011;17387;42.690;23.328;2022-08-21T11:38:35;12.25;;;6.18;;
29984;SDS011;17387;42.690;23.328;2022-08-21T11:51:25;12.45;;;6.97;;
29984;SDS011;17387;42.690;23.328;2022-08-21T11:56:36;11.35;;;5.85;;
29984;SDS011;17387;42.690;23.328;2022-08-21T11:59:11;10.68;;;6.45;;
29984;SDS011;17387;42.690;23.328;2022-08-21T12:02:01;12.80;;;7.50;;
29984;SDS011;17387;42.690;23.328;2022-08-21T12:06:52;24.67;;;12.98;;
29984;SDS011;17387;42.690;23.328;2022-08-21T12:11:59;12.05;;;6.63;;
29984;SDS011;17387;42.690;23.328;2022-08-21T12:14:43;10.23;;;7.20;;
29984;SDS011;17387;42.690;23.328;2022-08-21T12:22:47;12.05;;;7.35;;
29984;SDS011;17387;42.690;23.328;2022-08-21T12:25:17;9.10;;;6.97;;
29984;SDS011;17387;42.690;23.328;2022-08-21T12:27:49;11.25;;;8.13;;
29984;SDS011;17387;42.690;23.328;2022-08-21T12:30:21;15.88;;;9.18;;
29984;SDS011;17387;42.690;23.328;2022-08-21T12:32:59;11.32;;;8.23;;
29984;SDS011;17387;42.690;23.328;2022-08-21T12:35:38;37.78;;;20.70;;
29984;SDS011;17387;42.690;23.328;2022-08-21T12:38:12;12.77;;;7.90;;
29984;SDS011;17387;42.690;23.328;2022-08-21T12:40:43;17.20;;;10.30;;
29984;SDS011;17387;42.690;23.328;2022-08-21T12:43:18;12.93;;;7.72;;
29984;SDS011;17387;42.690;23.328;2022-08-21T12:45:47;17.73;;;9.80;;
29984;SDS011;17387;42.690;23.328;2022-08-21T12:48:18;14.15;;;9.45;;
29984;SDS011;17387;42.690;23.328;2022-08-21T12:50:55;15.00;;;10.05;;
29984;SDS011;17387;42.690;23.328;2022-08-21T12:53:31;14.02;;;8.52;;
29984;SDS011;17387;42.690;23.328;2022-08-21T12:56:07;15.02;;;10.02;;
29984;SDS011;17387;42.690;23.328;2022-08-21T12:58:35;15.52;;;9.32;;
29984;SDS011;17387;42.690;23.328;2022-08-21T13:01:05;10.70;;;7.38;;
29984;SDS011;17387;42.690;23.328;2022-08-21T13:03:37;13.80;;;8.60;;
29984;SDS011;17387;42.690;23.328;2022-08-21T13:06:04;20.23;;;11.15;;
29984;SDS011;17387;42.690;23.328;2022-08-21T13:08:30;14.73;;;7.60;;
29984;SDS011;17387;42.690;23.328;2022-08-21T13:11:00;14.23;;;8.98;;
29984;SDS011;17387;42.690;23.328;2022-08-21T13:13:29;14.07;;;8.40;;
29984;SDS011;17387;42.690;23.328;2022-08-21T13:15:59;11.52;;;7.97;;
29984;SDS011;17387;42.690;23.328;2022-08-21T13:18:28;23.83;;;15.30;;
29984;SDS011;17387;42.690;23.328;2022-08-21T13:21:12;17.70;;;11.20;;
29984;SDS011;17387;42.690;23.328;2022-08-21T13:23:39;15.25;;;8.60;;
29984;SDS011;17387;42.690;23.328;2022-08-21T13:28:57;22.55;;;13.80;;
29984;SDS011;17387;42.690;23.328;2022-08-21T13:31:32;15.73;;;9.85;;
29984;SDS011;17387;42.690;23.328;2022-08-21T13:33:58;17.75;;;11.23;;
29984;SDS011;17387;42.690;23.328;2022-08-21T13:36:25;11.52;;;7.60;;
29984;SDS011;17387;42.690;23.328;2022-08-21T13:38:54;14.30;;;7.28;;
29984;SDS011;17387;42.690;23.328;2022-08-21T13:41:21;11.77;;;6.15;;
29984;SDS011;17387;42.690;23.328;2022-08-21T13:43:56;11.43;;;7.15;;
29984;SDS011;17387;42.690;23.328;2022-08-21T13:46:39;17.30;;;7.85;;
29984;SDS011;17387;42.690;23.328;2022-08-21T13:49:05;12.38;;;7.18;;
29984;SDS011;17387;42.690;23.328;2022-08-21T13:51:33;12.10;;;7.63;;
29984;SDS011;17387;42.690;23.328;2022-08-21T13:54:00;16.48;;;10.55;;
29984;SDS011;17387;42.690;23.328;2022-08-21T13:58:56;15.05;;;7.90;;
29984;SDS011;17387;42.690;23.328;2022-08-21T14:04:23;11.30;;;5.47;;
29984;SDS011;17387;42.690;23.328;2022-08-21T14:07:00;13.98;;;5.88;;
29984;SDS011;17387;42.690;23.328;2022-08-21T14:09:34;13.27;;;7.35;;
29984;SDS011;17387;42.690;23.328;2022-08-21T14:12:27;12.68;;;8.68;;
29984;SDS011;17387;42.690;23.328;2022-08-21T14:14:57;15.32;;;7.70;;
29984;SDS011;17387;42.690;23.328;2022-08-21T14:17:34;13.88;;;7.40;;
29984;SDS011;17387;42.690;23.328;2022-08-21T14:20:03;14.73;;;9.93;;
29984;SDS011;17387;42.690;23.328;2022-08-21T14:25:06;12.43;;;7.55;;
29984;SDS011;17387;42.690;23.328;2022-08-21T14:27:40;18.08;;;11.85;;
29984;SDS011;17387;42.690;23.328;2022-08-21T14:30:17;10.93;;;8.00;;
29984;SDS011;17387;42.690;23.328;2022-08-21T14:32:52;12.90;;;7.03;;
29984;SDS011;17387;42.690;23.328;2022-08-21T14:35:18;18.63;;;7.88;;
29984;SDS011;17387;42.690;23.328;2022-08-21T14:37:46;13.93;;;7.38;;
29984;SDS011;17387;42.690;23.328;2022-08-21T14:40:12;12.18;;;7.90;;
29984;SDS011;17387;42.690;23.328;2022-08-21T14:42:39;10.25;;;6.00;;
29984;SDS011;17387;42.690;23.328;2022-08-21T14:45:09;10.60;;;6.53;;
29984;SDS011;17387;42.690;23.328;2022-08-21T14:47:39;20.02;;;14.48;;
29984;SDS011;17387;42.690;23.328;2022-08-21T14:50:05;20.50;;;11.95;;
29984;SDS011;17387;42.690;23.328;2022-08-21T14:52:31;15.13;;;10.60;;
29984;SDS011;17387;42.690;23.328;2022-08-21T14:54:57;15.88;;;9.32;;
29984;SDS011;17387;42.690;23.328;2022-08-21T14:57:22;13.55;;;10.10;;
29984;SDS011;17387;42.690;23.328;2022-08-21T14:59:51;14.75;;;8.52;;
29984;SDS011;17387;42.690;23.328;2022-08-21T15:02:17;13.88;;;8.02;;
29984;SDS011;17387;42.690;23.328;2022-08-21T15:04:42;21.55;;;13.15;;
29984;SDS011;17387;42.690;23.328;2022-08-21T15:07:07;14.75;;;9.60;;
29984;SDS011;17387;42.690;23.328;2022-08-21T15:09:33;20.77;;;11.13;;
29984;SDS011;17387;42.690;23.328;2022-08-21T15:11:59;11.27;;;8.45;;
29984;SDS011;17387;42.690;23.328;2022-08-21T15:14:27;16.48;;;11.30;;
29984;SDS011;17387;42.690;23.328;2022-08-21T15:16:54;11.85;;;7.40;;
29984;SDS011;17387;42.690;23.328;2022-08-21T15:19:20;14.52;;;8.32;;
29984;SDS011;17387;42.690;23.328;2022-08-21T15:21:46;15.38;;;7.60;;
29984;SDS011;17387;42.690;23.328;2022-08-21T15:24:11;12.73;;;7.07;;
29984;SDS011;17387;42.690;23.328;2022-08-21T15:26:37;11.07;;;7.65;;
29984;SDS011;17387;42.690;23.328;2022-08-21T15:29:03;13.65;;;7.68;;
29984;SDS011;17387;42.690;23.328;2022-08-21T15:31:31;11.90;;;7.15;;
29984;SDS011;17387;42.690;23.328;2022-08-21T15:33:56;14.13;;;8.05;;
29984;SDS011;17387;42.690;23.328;2022-08-21T15:36:22;12.95;;;9.18;;
29984;SDS011;17387;42.690;23.328;2022-08-21T15:38:48;13.05;;;7.68;;
29984;SDS011;17387;42.690;23.328;2022-08-21T15:41:14;12.57;;;9.07;;
29984;SDS011;17387;42.690;23.328;2022-08-21T15:43:50;16.35;;;8.65;;
29984;SDS011;17387;42.690;23.328;2022-08-21T15:46:18;12.45;;;7.75;;
29984;SDS011;17387;42.690;23.328;2022-08-21T15:48:45;12.13;;;9.40;;
29984;SDS011;17387;42.690;23.328;2022-08-21T15:51:11;20.67;;;8.80;;
29984;SDS011;17387;42.690;23.328;2022-08-21T15:53:39;13.25;;;8.13;;
29984;SDS011;17387;42.690;23.328;2022-08-21T15:56:28;12.88;;;10.15;;